createdAt,value
2019-03-06T00:01:39.047Z,3.80
2019-03-06T00:04:09.404Z,3.70
2019-03-06T00:06:39.865Z,3.80
2019-03-06T00:09:10.294Z,3.80
2019-03-06T00:11:40.936Z,3.90
2019-03-06T00:14:11.320Z,3.80
2019-03-06T00:16:41.736Z,3.70
2019-03-06T00:19:12.496Z,3.60
2019-03-06T00:21:42.891Z,3.70
2019-03-06T00:24:13.362Z,3.80
2019-03-06T00:26:43.674Z,3.70
2019-03-06T00:29:14.023Z,3.80
2019-03-06T00:31:44.496Z,3.80
2019-03-06T00:34:16.432Z,3.90
2019-03-06T00:36:47.876Z,3.80
2019-03-06T00:39:18.501Z,3.90
2019-03-06T00:41:51.373Z,3.80
2019-03-06T00:44:21.793Z,3.70
2019-03-06T00:46:52.294Z,3.80
2019-03-06T00:49:22.644Z,3.70
2019-03-06T00:51:53.267Z,3.60
2019-03-06T00:54:23.748Z,3.60
2019-03-06T00:56:54.155Z,3.60
2019-03-06T00:59:24.445Z,3.60
2019-03-06T01:01:54.895Z,3.60
2019-03-06T01:04:25.172Z,3.60
2019-03-06T01:06:55.591Z,3.50
2019-03-06T01:09:25.966Z,3.60
2019-03-06T01:11:56.346Z,3.60
2019-03-06T01:14:27.015Z,3.60
2019-03-06T01:16:57.441Z,3.60
2019-03-06T01:19:27.817Z,3.60
2019-03-06T01:21:58.196Z,3.60
2019-03-06T01:24:28.521Z,3.60
2019-03-06T01:26:58.934Z,3.60
2019-03-06T01:29:29.272Z,3.60
2019-03-06T01:31:59.875Z,3.50
2019-03-06T01:34:51.940Z,3.60
2019-03-06T01:37:33.851Z,3.60
2019-03-06T01:40:30.071Z,3.60
2019-03-06T01:43:06.346Z,3.70
2019-03-06T01:45:36.620Z,3.50
2019-03-06T01:48:06.930Z,3.60
2019-03-06T01:50:37.235Z,3.60
2019-03-06T01:53:08.700Z,3.70
2019-03-06T01:55:39.116Z,3.60
2019-03-06T01:58:09.455Z,3.40
2019-03-06T02:00:40.690Z,3.50
2019-03-06T02:03:11.087Z,3.60
2019-03-06T02:05:41.379Z,3.70
2019-03-06T02:08:12.181Z,3.80
2019-03-06T02:10:42.512Z,3.70
2019-03-06T02:13:13.121Z,3.80
2019-03-06T02:15:43.414Z,3.90
2019-03-06T02:18:13.775Z,3.90
2019-03-06T02:20:44.141Z,4.10
2019-03-06T02:23:15.722Z,4.20
2019-03-06T02:25:46.041Z,4.30
2019-03-06T02:28:16.430Z,4.30
2019-03-06T02:30:46.730Z,4.40
2019-03-06T02:33:17.111Z,4.40
2019-03-06T02:35:47.493Z,4.40
2019-03-06T02:38:17.772Z,4.50
2019-03-06T02:40:48.097Z,4.50
2019-03-06T02:43:18.429Z,4.50
2019-03-06T02:45:48.803Z,4.50
2019-03-06T02:48:19.181Z,4.50
2019-03-06T02:50:49.567Z,4.50
2019-03-06T02:53:19.957Z,4.50
2019-03-06T02:55:50.377Z,4.50
2019-03-06T02:58:44.249Z,4.50
2019-03-06T03:01:33.576Z,4.50
2019-03-06T03:04:25.912Z,4.50
2019-03-06T03:06:59.230Z,4.60
2019-03-06T03:09:29.694Z,4.70
2019-03-06T03:12:00.180Z,4.80
2019-03-06T03:14:31.510Z,4.80
2019-03-06T03:17:01.948Z,4.70
2019-03-06T03:19:32.264Z,4.80
2019-03-06T03:22:02.658Z,4.80
2019-03-06T03:24:33.042Z,4.70
2019-03-06T03:27:03.457Z,4.80
2019-03-06T03:29:33.861Z,4.80
2019-03-06T03:32:04.241Z,4.80
2019-03-06T03:34:34.952Z,4.80
2019-03-06T03:37:06.441Z,4.80
2019-03-06T03:39:37.892Z,4.80
2019-03-06T03:42:08.261Z,4.80
2019-03-06T03:44:39.840Z,4.90
2019-03-06T03:47:10.313Z,5.00
2019-03-06T03:49:40.743Z,4.90
2019-03-06T03:52:12.306Z,5.00
2019-03-06T03:54:42.773Z,5.00
2019-03-06T03:57:13.428Z,5.00
2019-03-06T03:59:43.803Z,5.10
2019-03-06T04:02:14.249Z,5.10
2019-03-06T04:04:44.760Z,5.10
2019-03-06T04:07:15.150Z,5.10
2019-03-06T04:09:45.638Z,5.20
2019-03-06T04:12:16.063Z,5.20
2019-03-06T04:14:46.429Z,5.20
2019-03-06T04:17:16.819Z,5.10
2019-03-06T04:19:47.219Z,5.10
2019-03-06T04:22:17.651Z,5.20
2019-03-06T04:24:48.021Z,5.10
2019-03-06T04:27:18.454Z,5.10
2019-03-06T04:29:48.703Z,5.10
2019-03-06T04:32:19.092Z,5.10
2019-03-06T04:34:49.428Z,5.00
2019-03-06T04:37:19.827Z,5.10
2019-03-06T04:39:50.163Z,5.10
2019-03-06T04:42:20.476Z,5.10
2019-03-06T04:44:51.118Z,5.10
2019-03-06T04:47:21.526Z,5.20
2019-03-06T04:49:53.039Z,5.20
2019-03-06T04:52:23.615Z,5.20
2019-03-06T04:54:54.042Z,5.20
2019-03-06T04:57:24.497Z,5.20
2019-03-06T04:59:54.952Z,5.30
2019-03-06T05:02:25.335Z,5.20
2019-03-06T05:04:55.861Z,5.20
2019-03-06T05:07:27.647Z,5.20
2019-03-06T05:09:58.131Z,5.10
2019-03-06T05:12:28.542Z,5.20
2019-03-06T05:14:58.954Z,5.20
2019-03-06T05:17:36.578Z,5.10
2019-03-06T05:20:07.577Z,5.10
2019-03-06T05:22:37.985Z,5.10
2019-03-06T05:25:08.523Z,5.00
2019-03-06T05:27:38.961Z,5.00
2019-03-06T05:30:10.016Z,5.00
2019-03-06T05:32:40.581Z,5.00
2019-03-06T05:35:21.868Z,4.90
2019-03-06T05:38:07.658Z,4.90
2019-03-06T05:40:38.091Z,4.90
2019-03-06T05:43:08.607Z,4.90
2019-03-06T05:45:38.988Z,4.90
2019-03-06T05:48:09.408Z,4.90
2019-03-06T05:50:39.906Z,4.90
2019-03-06T05:53:10.544Z,5.00
2019-03-06T05:55:41.010Z,5.00
2019-03-06T05:58:11.778Z,5.00
2019-03-06T06:00:42.143Z,5.00
2019-03-06T06:03:12.494Z,4.90
2019-03-06T06:05:42.984Z,5.00
2019-03-06T06:08:13.350Z,5.20
2019-03-06T06:10:43.646Z,5.30
2019-03-06T06:13:14.017Z,5.40
2019-03-06T06:15:44.437Z,5.50
2019-03-06T06:18:14.881Z,5.50
2019-03-06T06:20:45.697Z,5.50
2019-03-06T06:23:33.513Z,5.50
2019-03-06T06:26:04.002Z,5.60
2019-03-06T06:28:34.436Z,5.60
2019-03-06T06:31:04.814Z,5.60
2019-03-06T06:33:35.097Z,5.70
2019-03-06T06:36:05.501Z,5.70
2019-03-06T06:38:37.409Z,5.70
2019-03-06T06:41:08.019Z,5.70
2019-03-06T06:43:38.442Z,5.70
2019-03-06T06:46:08.888Z,5.70
2019-03-06T06:48:39.279Z,5.70
2019-03-06T06:51:40.443Z,5.80
2019-03-06T06:54:33.772Z,5.80
2019-03-06T06:57:38.646Z,5.80
2019-03-06T07:00:17.779Z,5.90
2019-03-06T07:03:48.187Z,5.90
2019-03-06T07:06:33.051Z,5.90
2019-03-06T07:09:25.387Z,6.00
2019-03-06T07:12:14.678Z,6.10
2019-03-06T07:15:13.480Z,6.20
2019-03-06T07:18:11.719Z,6.20
2019-03-06T07:21:10.384Z,6.30
2019-03-06T07:23:58.643Z,6.40
2019-03-06T07:26:46.714Z,6.40
2019-03-06T07:29:23.392Z,6.60
2019-03-06T07:32:31.064Z,6.60
2019-03-06T07:36:02.694Z,6.70
2019-03-06T07:38:34.402Z,6.80
2019-03-06T07:41:15.928Z,6.90
2019-03-06T07:44:07.960Z,7.00
2019-03-06T07:47:02.204Z,7.10
2019-03-06T07:49:51.491Z,7.30
2019-03-06T07:52:44.739Z,7.40
2019-03-06T07:55:42.432Z,7.40
2019-03-06T07:58:56.889Z,7.50
2019-03-06T08:01:29.621Z,7.60
2019-03-06T08:04:11.336Z,7.70
2019-03-06T08:06:44.638Z,7.80
2019-03-06T08:09:18.676Z,8.00
2019-03-06T08:12:07.129Z,8.10
2019-03-06T08:15:08.611Z,8.10
2019-03-06T08:18:13.206Z,8.20
2019-03-06T08:21:01.214Z,8.30
2019-03-06T08:23:51.678Z,8.40
2019-03-06T08:26:22.100Z,8.50
2019-03-06T08:28:52.669Z,8.60
2019-03-06T08:31:27.722Z,8.70
2019-03-06T08:33:58.354Z,8.80
2019-03-06T08:36:28.824Z,8.80
2019-03-06T08:38:59.217Z,8.90
2019-03-06T08:41:29.603Z,9.00
2019-03-06T08:44:00.203Z,9.10
2019-03-06T08:46:38.325Z,9.20
2019-03-06T08:49:52.543Z,9.40
2019-03-06T08:52:38.515Z,9.40
2019-03-06T08:55:43.756Z,9.50
2019-03-06T08:58:39.666Z,9.60
2019-03-06T09:01:42.821Z,9.80
2019-03-06T09:04:38.772Z,9.80
2019-03-06T09:07:34.829Z,9.90
2019-03-06T09:10:23.737Z,9.90
2019-03-06T09:13:15.932Z,10.00
2019-03-06T09:16:05.082Z,10.20
2019-03-06T09:18:54.415Z,10.30
2019-03-06T09:21:46.766Z,10.30
2019-03-06T09:24:34.755Z,10.50
2019-03-06T09:27:18.760Z,10.50
2019-03-06T09:30:17.433Z,10.60
2019-03-06T09:33:09.027Z,10.60
2019-03-06T09:35:56.070Z,10.50
2019-03-06T09:39:03.837Z,10.50
2019-03-06T09:42:04.233Z,10.60
2019-03-06T09:44:52.383Z,10.80
2019-03-06T09:47:37.843Z,10.90
2019-03-06T09:50:18.749Z,11.00
2019-03-06T09:53:23.687Z,11.00
2019-03-06T09:56:31.500Z,11.00
2019-03-06T09:59:21.349Z,10.80
2019-03-06T10:02:06.745Z,10.80
2019-03-06T10:05:08.903Z,10.70
2019-03-06T10:08:04.464Z,11.00
2019-03-06T10:10:57.501Z,11.30
2019-03-06T10:13:42.142Z,11.20
2019-03-06T10:16:20.856Z,11.40
2019-03-06T10:19:19.549Z,11.40
2019-03-06T10:21:50.263Z,11.40
2019-03-06T10:24:20.863Z,11.50
2019-03-06T10:26:51.439Z,11.30
2019-03-06T10:29:21.986Z,11.30
2019-03-06T10:31:52.535Z,11.30
2019-03-06T10:34:23.268Z,11.30
2019-03-06T10:36:53.754Z,11.40
2019-03-06T10:39:24.302Z,11.50
2019-03-06T10:41:54.654Z,11.50
2019-03-06T10:44:29.512Z,11.90
2019-03-06T10:46:57.203Z,12.00
2019-03-06T10:49:29.087Z,12.40
2019-03-06T10:51:59.548Z,12.50
2019-03-06T10:54:30.009Z,12.60
2019-03-06T10:57:00.492Z,12.90
2019-03-06T10:59:30.995Z,13.10
2019-03-06T11:02:01.445Z,13.40
2019-03-06T11:04:45.864Z,13.40
2019-03-06T11:07:17.638Z,13.40
2019-03-06T11:09:48.247Z,13.50
2019-03-06T11:12:18.758Z,13.80
2019-03-06T11:14:50.274Z,13.90
2019-03-06T11:17:21.129Z,14.10
2019-03-06T11:19:51.815Z,14.00
2019-03-06T11:22:22.270Z,14.10
2019-03-06T11:24:52.787Z,14.10
2019-03-06T11:27:23.320Z,14.10
2019-03-06T11:29:53.782Z,14.40
2019-03-06T11:32:24.430Z,14.50
2019-03-06T11:34:54.921Z,14.70
2019-03-06T11:37:25.428Z,14.70
2019-03-06T11:39:55.911Z,14.90
2019-03-06T11:42:26.442Z,14.70
2019-03-06T11:44:58.007Z,15.00
2019-03-06T11:47:28.615Z,14.70
2019-03-06T11:49:59.122Z,14.50
2019-03-06T11:52:29.634Z,14.50
2019-03-06T11:55:06.199Z,14.70
2019-03-06T11:57:33.391Z,14.70
2019-03-06T12:00:07.191Z,14.50
2019-03-06T12:02:37.819Z,14.30
2019-03-06T12:05:08.474Z,14.50
2019-03-06T12:07:39.119Z,14.70
2019-03-06T12:10:10.862Z,14.70
2019-03-06T12:12:41.438Z,14.90
2019-03-06T12:15:12.800Z,15.00
2019-03-06T12:17:43.377Z,15.10
2019-03-06T12:20:14.033Z,15.00
2019-03-06T12:22:44.539Z,14.90
2019-03-06T12:25:16.383Z,15.00
2019-03-06T12:27:46.981Z,15.00
2019-03-06T12:30:17.564Z,14.90
2019-03-06T12:32:48.235Z,15.40
2019-03-06T12:35:18.823Z,15.40
2019-03-06T12:37:49.224Z,15.40
2019-03-06T12:40:20.151Z,15.50
2019-03-06T12:42:50.654Z,15.60
2019-03-06T12:45:21.580Z,15.70
2019-03-06T12:47:55.328Z,15.90
2019-03-06T12:50:25.261Z,16.00
2019-03-06T12:52:55.758Z,15.90
2019-03-06T12:55:27.532Z,15.90
2019-03-06T12:57:59.609Z,15.90
2019-03-06T13:00:30.320Z,16.10
2019-03-06T13:03:00.820Z,16.00
2019-03-06T13:05:31.232Z,15.90
2019-03-06T13:08:01.591Z,16.00
2019-03-06T13:10:32.169Z,15.90
2019-03-06T13:13:02.880Z,15.90
2019-03-06T13:15:33.595Z,15.70
2019-03-06T13:18:04.571Z,15.70
2019-03-06T13:20:35.221Z,15.70
2019-03-06T13:23:07.451Z,15.50
2019-03-06T13:25:38.144Z,15.50
2019-03-06T13:28:08.808Z,15.40
2019-03-06T13:30:39.228Z,15.60
2019-03-06T13:33:34.808Z,15.80
2019-03-06T13:36:07.144Z,15.90
2019-03-06T13:38:37.597Z,16.20
2019-03-06T13:41:08.080Z,16.10
2019-03-06T13:43:38.584Z,16.30
2019-03-06T13:46:09.180Z,16.40
2019-03-06T13:48:39.981Z,16.20
2019-03-06T13:51:10.601Z,16.00
2019-03-06T13:53:41.290Z,15.60
2019-03-06T13:56:11.904Z,15.70
2019-03-06T13:58:42.516Z,15.60
2019-03-06T14:01:13.045Z,15.40
2019-03-06T14:03:43.784Z,15.20
2019-03-06T14:06:14.400Z,15.00
2019-03-06T14:08:44.964Z,15.00
2019-03-06T14:11:18.120Z,15.10
2019-03-06T14:13:49.784Z,15.20
2019-03-06T14:16:20.755Z,15.30
2019-03-06T14:18:51.309Z,15.30
2019-03-06T14:21:22.696Z,15.20
2019-03-06T14:23:53.320Z,15.00
2019-03-06T14:26:23.920Z,15.10
2019-03-06T14:28:54.912Z,15.00
2019-03-06T14:31:25.616Z,14.90
2019-03-06T14:33:56.140Z,14.80
2019-03-06T14:36:27.033Z,14.70
2019-03-06T14:38:57.560Z,14.70
2019-03-06T14:41:28.369Z,14.60
2019-03-06T14:43:59.006Z,14.40
2019-03-06T14:46:29.904Z,14.30
2019-03-06T14:49:03.103Z,14.20
2019-03-06T14:51:33.732Z,14.20
2019-03-06T14:54:04.437Z,14.00
2019-03-06T14:56:34.924Z,13.90
2019-03-06T14:59:05.356Z,13.80
2019-03-06T15:01:36.004Z,13.80
2019-03-06T15:04:06.611Z,13.80
2019-03-06T15:06:37.094Z,13.60
2019-03-06T15:09:21.040Z,13.60
2019-03-06T15:11:51.481Z,13.60
2019-03-06T15:14:21.932Z,13.60
2019-03-06T15:16:52.549Z,13.60
2019-03-06T15:19:23.684Z,13.60
2019-03-06T15:21:54.169Z,13.60
2019-03-06T15:24:24.590Z,13.50
2019-03-06T15:26:56.360Z,13.50
2019-03-06T15:29:27.133Z,13.50
2019-03-06T15:31:58.126Z,13.40
2019-03-06T15:34:28.882Z,13.50
2019-03-06T15:36:59.716Z,13.40
2019-03-06T15:39:42.588Z,13.40
2019-03-06T15:42:12.574Z,13.40
2019-03-06T15:44:43.521Z,13.40
2019-03-06T15:47:15.405Z,13.40
2019-03-06T15:49:45.892Z,13.40
2019-03-06T15:52:16.592Z,13.30
2019-03-06T15:54:47.468Z,13.40
2019-03-06T15:57:18.320Z,13.20
2019-03-06T15:59:48.947Z,13.10
2019-03-06T16:02:19.635Z,13.10
2019-03-06T16:04:50.254Z,13.10
2019-03-06T16:07:21.136Z,12.90
2019-03-06T16:09:51.845Z,12.90
2019-03-06T16:12:22.372Z,12.80
2019-03-06T16:14:53.022Z,12.80
2019-03-06T16:17:23.661Z,12.80
2019-03-06T16:20:00.293Z,12.80
2019-03-06T16:22:40.101Z,12.80
2019-03-06T16:25:17.328Z,12.70
2019-03-06T16:27:53.956Z,12.80
2019-03-06T16:30:33.986Z,12.70
2019-03-06T16:33:08.627Z,12.60
2019-03-06T16:35:42.546Z,12.50
2019-03-06T16:38:16.671Z,12.50
2019-03-06T16:40:52.557Z,12.40
2019-03-06T16:43:30.162Z,12.40
2019-03-06T16:46:01.207Z,12.40
2019-03-06T16:48:32.107Z,12.30
2019-03-06T16:51:02.602Z,12.30
2019-03-06T16:53:34.186Z,12.10
2019-03-06T16:56:04.915Z,12.10
2019-03-06T16:58:35.557Z,12.00
2019-03-06T17:01:06.986Z,12.00
2019-03-06T17:03:37.661Z,11.90
2019-03-06T17:06:08.572Z,11.90
2019-03-06T17:08:39.104Z,11.80
2019-03-06T17:11:11.510Z,11.80
2019-03-06T17:13:42.323Z,11.80
2019-03-06T17:16:14.136Z,11.80
2019-03-06T17:18:44.814Z,11.80
2019-03-06T17:21:17.390Z,11.80
2019-03-06T17:23:47.944Z,11.70
2019-03-06T17:26:20.693Z,11.60
2019-03-06T17:28:50.938Z,11.60
2019-03-06T17:31:21.560Z,11.50
2019-03-06T17:33:53.125Z,11.50
2019-03-06T17:36:23.648Z,11.40
2019-03-06T17:38:54.230Z,11.50
2019-03-06T17:41:24.765Z,11.50
2019-03-06T17:43:55.521Z,11.50
2019-03-06T17:46:26.136Z,11.40
2019-03-06T17:48:56.669Z,11.50
2019-03-06T17:51:27.627Z,11.40
2019-03-06T17:53:58.123Z,11.50
2019-03-06T17:56:28.695Z,11.40
2019-03-06T17:58:59.319Z,11.40
2019-03-06T18:01:30.393Z,11.30
2019-03-06T18:04:17.352Z,11.30
2019-03-06T18:06:47.950Z,11.30
2019-03-06T18:09:18.402Z,11.40
2019-03-06T18:11:49.776Z,11.30
2019-03-06T18:14:21.346Z,11.40
2019-03-06T18:16:51.903Z,11.40
2019-03-06T18:19:22.551Z,11.40
2019-03-06T18:21:53.260Z,11.30
2019-03-06T18:24:23.886Z,11.40
2019-03-06T18:26:55.066Z,11.30
2019-03-06T18:29:25.731Z,11.30
2019-03-06T18:31:59.475Z,11.40
2019-03-06T18:34:30.220Z,11.40
2019-03-06T18:37:00.736Z,11.40
2019-03-06T18:39:31.305Z,11.50
2019-03-06T18:42:01.921Z,11.50
2019-03-06T18:44:32.482Z,11.50
2019-03-06T18:47:03.256Z,11.50
2019-03-06T18:49:33.876Z,11.50
2019-03-06T18:52:05.243Z,11.50
2019-03-06T18:54:37.541Z,11.50
2019-03-06T18:57:08.135Z,11.50
2019-03-06T18:59:38.727Z,11.60
2019-03-06T19:02:09.206Z,11.60
2019-03-06T19:04:39.731Z,11.60
2019-03-06T19:07:10.626Z,11.60
2019-03-06T19:09:41.345Z,11.70
2019-03-06T19:12:12.024Z,11.70
2019-03-06T19:14:42.601Z,11.70
2019-03-06T19:17:13.159Z,11.70
2019-03-06T19:19:43.684Z,11.70
2019-03-06T19:22:14.286Z,11.60
2019-03-06T19:24:45.412Z,11.50
2019-03-06T19:27:15.977Z,11.40
2019-03-06T19:29:46.401Z,11.40
2019-03-06T19:32:16.799Z,11.40
2019-03-06T19:34:47.256Z,11.40
2019-03-06T19:37:17.711Z,11.40
2019-03-06T19:39:48.064Z,11.40
2019-03-06T19:42:18.718Z,11.30
2019-03-06T19:44:49.675Z,11.40
2019-03-06T19:47:20.670Z,11.30
2019-03-06T19:49:51.136Z,11.30
2019-03-06T19:52:21.510Z,11.40
2019-03-06T19:54:52.121Z,11.40
2019-03-06T19:57:23.601Z,11.40
2019-03-06T19:59:54.202Z,11.40
2019-03-06T20:02:24.600Z,11.40
2019-03-06T20:04:55.252Z,11.40
2019-03-06T20:07:25.651Z,11.20
2019-03-06T20:09:56.168Z,11.20
2019-03-06T20:12:26.595Z,11.20
2019-03-06T20:14:57.385Z,11.20
2019-03-06T20:17:27.788Z,11.10
2019-03-06T20:19:58.221Z,11.10
2019-03-06T20:22:28.747Z,11.10
2019-03-06T20:24:59.221Z,11.10
2019-03-06T20:27:29.720Z,11.10
2019-03-06T20:30:00.307Z,11.00
2019-03-06T20:32:31.335Z,11.00
2019-03-06T20:35:01.671Z,11.10
2019-03-06T20:37:32.182Z,11.00
2019-03-06T20:40:02.782Z,11.10
2019-03-06T20:42:38.840Z,11.00
2019-03-06T20:45:12.712Z,11.00
2019-03-06T20:47:46.964Z,11.00
2019-03-06T20:50:17.714Z,11.00
2019-03-06T20:52:50.244Z,11.00
2019-03-06T20:55:20.606Z,11.00
2019-03-06T20:57:51.272Z,11.00
2019-03-06T21:00:23.504Z,11.10
2019-03-06T21:02:54.073Z,11.00
2019-03-06T21:05:26.977Z,11.10
2019-03-06T21:07:58.106Z,11.00
2019-03-06T21:10:28.600Z,11.00
2019-03-06T21:12:59.249Z,10.90
2019-03-06T21:15:29.849Z,10.90
2019-03-06T21:18:00.677Z,10.90
2019-03-06T21:20:31.133Z,11.00
2019-03-06T21:23:01.696Z,11.00
2019-03-06T21:25:32.513Z,11.00
2019-03-06T21:28:02.961Z,11.00
2019-03-06T21:30:37.055Z,11.00
2019-03-06T21:33:07.601Z,11.00
2019-03-06T21:35:37.994Z,11.00
2019-03-06T21:38:08.431Z,11.00
2019-03-06T21:40:38.964Z,10.90
2019-03-06T21:43:09.544Z,10.90
2019-03-06T21:45:40.037Z,10.90
2019-03-06T21:48:10.450Z,10.90
2019-03-06T21:50:40.935Z,11.00
2019-03-06T21:53:11.746Z,10.90
2019-03-06T21:55:42.216Z,10.90
2019-03-06T21:58:12.737Z,10.90
2019-03-06T22:00:43.452Z,10.90
2019-03-06T22:03:13.862Z,10.80
2019-03-06T22:05:44.332Z,10.80
2019-03-06T22:08:14.992Z,10.70
2019-03-06T22:10:45.528Z,10.70
2019-03-06T22:13:15.978Z,10.60
2019-03-06T22:15:46.381Z,10.60
2019-03-06T22:18:16.779Z,10.60
2019-03-06T22:20:47.309Z,10.50
2019-03-06T22:23:19.263Z,10.40
2019-03-06T22:25:49.749Z,10.40
2019-03-06T22:28:20.161Z,10.30
2019-03-06T22:30:50.780Z,10.30
2019-03-06T22:33:21.234Z,10.30
2019-03-06T22:35:51.768Z,10.20
2019-03-06T22:38:22.216Z,10.20
2019-03-06T22:40:52.564Z,10.20
2019-03-06T22:43:23.035Z,10.10
2019-03-06T22:45:53.426Z,10.10
2019-03-06T22:48:23.827Z,10.10
2019-03-06T22:50:54.235Z,10.00
2019-03-06T22:53:24.681Z,10.00
2019-03-06T22:55:55.172Z,10.00
2019-03-06T22:58:25.612Z,10.00
2019-03-06T23:01:05.467Z,10.00
2019-03-06T23:03:36.668Z,10.00
2019-03-06T23:06:07.918Z,10.00
2019-03-06T23:08:38.418Z,10.10
2019-03-06T23:11:09.272Z,10.00
2019-03-06T23:13:39.729Z,10.00
2019-03-06T23:16:10.228Z,10.10
2019-03-06T23:18:40.708Z,10.10
2019-03-06T23:21:11.304Z,10.10
2019-03-06T23:23:41.893Z,10.10
2019-03-06T23:26:12.186Z,10.20
2019-03-06T23:28:42.578Z,10.20
2019-03-06T23:31:12.988Z,10.20
2019-03-06T23:33:43.432Z,10.30
2019-03-06T23:36:14.087Z,10.30
2019-03-06T23:38:44.462Z,10.30
2019-03-06T23:41:14.841Z,10.40
2019-03-06T23:43:45.252Z,10.40
2019-03-06T23:46:15.713Z,10.40
2019-03-06T23:48:46.103Z,10.40
2019-03-06T23:51:24.315Z,10.40
2019-03-06T23:53:55.662Z,10.40
2019-03-06T23:56:26.143Z,10.50
2019-03-06T23:58:57.578Z,10.50
